createdAt,value
2022-08-14T00:00:56.951Z,99.99
2022-08-14T00:02:01.321Z,99.99
2022-08-14T00:02:57.368Z,99.99
2022-08-14T00:03:57.164Z,99.99
2022-08-14T00:04:57.512Z,99.99
2022-08-14T00:06:02.439Z,99.99
2022-08-14T00:06:59.408Z,99.99
2022-08-14T00:07:58.033Z,99.99
2022-08-14T00:09:01.525Z,99.99
2022-08-14T00:10:50.670Z,99.99
2022-08-14T00:11:08.835Z,99.99
2022-08-14T00:12:05.960Z,99.99
2022-08-14T00:13:09.554Z,99.99
2022-08-14T00:14:07.825Z,99.99
2022-08-14T00:15:07.611Z,99.99
2022-08-14T00:16:09.984Z,99.99
2022-08-14T00:17:07.801Z,99.99
2022-08-14T00:18:09.141Z,99.99
2022-08-14T00:19:29.524Z,99.99
2022-08-14T00:20:35.586Z,99.99
2022-08-14T00:21:31.057Z,99.99
2022-08-14T00:23:00.398Z,99.99
2022-08-14T00:23:27.972Z,99.99
2022-08-14T00:24:33.099Z,99.99
2022-08-14T00:25:44.056Z,99.99
2022-08-14T00:26:30.667Z,99.99
2022-08-14T00:27:35.392Z,99.99
2022-08-14T00:28:35.198Z,99.99
2022-08-14T00:29:29.747Z,99.99
2022-08-14T00:30:29.540Z,99.99
2022-08-14T00:31:46.859Z,99.99
2022-08-14T00:33:15.161Z,99.99
2022-08-14T00:34:48.510Z,99.99
2022-08-14T00:35:03.505Z,99.99
2022-08-14T00:36:48.471Z,99.99
2022-08-14T00:37:05.623Z,99.99
2022-08-14T00:38:10.302Z,99.99
2022-08-14T00:39:09.393Z,99.99
2022-08-14T00:40:27.702Z,99.99
2022-08-14T00:41:05.557Z,99.99
2022-08-14T00:42:06.015Z,99.99
2022-08-14T00:43:05.654Z,99.99
2022-08-14T00:44:08.339Z,99.99
2022-08-14T00:45:05.672Z,99.99
2022-08-14T00:46:08.138Z,99.99
2022-08-14T00:47:05.856Z,99.99
2022-08-14T00:48:05.493Z,99.99
2022-08-14T00:49:05.491Z,99.99
2022-08-14T00:50:05.475Z,99.99
2022-08-14T00:51:05.472Z,99.99
2022-08-14T00:52:05.205Z,99.99
2022-08-14T00:53:05.919Z,99.99
2022-08-14T00:54:10.978Z,99.99
2022-08-14T00:55:05.184Z,99.99
2022-08-14T00:56:10.846Z,99.99
2022-08-14T00:57:05.429Z,99.99
2022-08-14T00:58:05.612Z,99.99
2022-08-14T00:59:05.728Z,99.99
2022-08-14T01:00:05.401Z,99.99
2022-08-14T01:01:05.777Z,99.99
2022-08-14T01:02:06.406Z,99.99
2022-08-14T01:03:05.379Z,99.99
2022-08-14T01:04:07.883Z,99.99
2022-08-14T01:05:06.044Z,99.99
2022-08-14T01:06:09.490Z,99.99
2022-08-14T01:07:09.653Z,99.99
2022-08-14T01:08:05.720Z,99.99
2022-08-14T01:09:05.927Z,99.99
2022-08-14T01:10:05.921Z,99.99
2022-08-14T01:11:05.911Z,99.99
2022-08-14T01:12:06.196Z,99.99
2022-08-14T01:13:05.642Z,99.99
2022-08-14T01:14:28.439Z,99.99
2022-08-14T01:15:05.879Z,99.99
2022-08-14T01:16:05.617Z,99.99
2022-08-14T01:17:08.742Z,99.99
2022-08-14T01:18:07.043Z,99.99
2022-08-14T01:19:05.854Z,99.99
2022-08-14T01:20:07.459Z,99.99
2022-08-14T01:21:06.384Z,99.99
2022-08-14T01:22:07.109Z,99.99
2022-08-14T01:23:07.328Z,99.99
2022-08-14T01:24:12.132Z,99.99
2022-08-14T01:25:06.104Z,99.99
2022-08-14T01:26:06.737Z,99.99
2022-08-14T01:27:09.500Z,99.99
2022-08-14T01:28:06.364Z,99.99
2022-08-14T01:29:06.147Z,99.99
2022-08-14T01:30:07.377Z,99.99
2022-08-14T01:31:07.267Z,99.99
2022-08-14T01:32:12.616Z,99.99
2022-08-14T01:33:10.349Z,99.99
2022-08-14T01:36:03.169Z,99.99
2022-08-14T01:36:30.437Z,99.99
2022-08-14T01:37:29.742Z,99.99
2022-08-14T01:38:30.051Z,99.99
2022-08-14T01:39:34.280Z,99.99
2022-08-14T01:40:41.233Z,99.99
2022-08-14T01:41:32.099Z,99.99
2022-08-14T01:42:38.107Z,99.99
2022-08-14T01:43:29.695Z,99.99
2022-08-14T01:44:34.851Z,99.99
2022-08-14T01:45:31.431Z,99.99
2022-08-14T01:46:38.923Z,99.99
2022-08-14T01:47:37.188Z,99.99
2022-08-14T01:48:29.401Z,99.99
2022-08-14T01:49:40.535Z,99.99
2022-08-14T01:50:29.386Z,99.99
2022-08-14T01:51:29.649Z,99.99
2022-08-14T01:53:01.342Z,99.99
2022-08-14T01:53:35.976Z,99.99
2022-08-14T01:54:40.589Z,99.99
2022-08-14T01:55:31.042Z,99.99
2022-08-14T01:56:32.967Z,99.99
2022-08-14T01:58:19.158Z,99.99
2022-08-14T01:58:35.923Z,99.99
2022-08-14T01:59:40.572Z,99.99
2022-08-14T02:00:38.536Z,99.99
2022-08-14T02:01:38.051Z,99.99
2022-08-14T02:02:39.338Z,99.99
2022-08-14T02:03:37.265Z,99.99
2022-08-14T02:04:59.436Z,99.99
2022-08-14T02:05:40.410Z,99.99
2022-08-14T02:06:36.010Z,99.99
2022-08-14T02:08:08.679Z,99.99
2022-08-14T02:08:57.796Z,99.99
2022-08-14T02:09:58.327Z,99.99
2022-08-14T02:10:58.094Z,99.99
2022-08-14T02:11:57.022Z,99.99
2022-08-14T02:13:01.512Z,99.99
2022-08-14T02:13:56.347Z,99.99
2022-08-14T02:15:03.449Z,99.99
2022-08-14T02:15:56.655Z,99.99
2022-08-14T02:16:57.384Z,99.99
2022-08-14T02:17:56.064Z,99.99
2022-08-14T02:18:56.116Z,99.99
2022-08-14T02:19:56.315Z,99.99
2022-08-14T02:20:57.804Z,99.99
2022-08-14T02:21:57.899Z,99.99
2022-08-14T02:22:57.063Z,99.99
2022-08-14T02:23:57.120Z,99.99
2022-08-14T02:24:58.472Z,99.99
2022-08-14T02:25:56.687Z,99.99
2022-08-14T02:28:59.658Z,99.99
2022-08-14T02:29:13.694Z,99.99
2022-08-14T02:30:16.507Z,99.99
2022-08-14T02:31:17.162Z,99.99
2022-08-14T02:32:35.873Z,99.99
2022-08-14T02:33:14.133Z,99.99
2022-08-14T02:34:26.239Z,99.99
2022-08-14T02:35:14.048Z,99.99
2022-08-14T02:37:08.359Z,99.99
2022-08-14T02:37:23.787Z,99.99
2022-08-14T02:38:34.362Z,99.99
2022-08-14T02:39:24.942Z,99.99
2022-08-14T02:40:35.729Z,99.99
2022-08-14T02:41:31.813Z,99.99
2022-08-14T02:42:39.346Z,99.99
2022-08-14T02:43:24.894Z,99.99
2022-08-14T02:44:32.029Z,99.99
2022-08-14T02:45:23.987Z,99.99
2022-08-14T02:46:34.551Z,99.99
2022-08-14T02:47:23.714Z,99.99
2022-08-14T02:49:07.938Z,99.99
2022-08-14T02:49:36.079Z,99.99
2022-08-14T02:50:29.630Z,99.99
2022-08-14T02:51:32.700Z,99.99
2022-08-14T02:53:05.207Z,99.99
2022-08-14T02:53:31.641Z,99.99
2022-08-14T02:54:28.874Z,99.99
2022-08-14T02:55:29.526Z,99.99
2022-08-14T02:57:39.549Z,99.99
2022-08-14T02:58:08.386Z,99.99
2022-08-14T02:59:07.877Z,99.99
2022-08-14T03:00:09.278Z,99.99
2022-08-14T03:01:09.156Z,99.99
2022-08-14T03:02:06.606Z,99.99
2022-08-14T03:03:11.806Z,99.99
2022-08-14T03:04:12.731Z,99.99
2022-08-14T03:05:11.710Z,99.99
2022-08-14T03:06:11.960Z,99.99
2022-08-14T03:07:11.968Z,99.99
2022-08-14T03:08:15.258Z,99.99
2022-08-14T03:09:11.932Z,99.99
2022-08-14T03:10:32.209Z,99.99
2022-08-14T03:11:11.792Z,99.99
2022-08-14T03:12:11.663Z,99.99
2022-08-14T03:13:22.193Z,99.99
2022-08-14T03:14:11.900Z,99.99
2022-08-14T03:15:19.268Z,99.99
2022-08-14T03:16:28.999Z,99.99
2022-08-14T03:17:12.259Z,99.99
2022-08-14T03:18:14.450Z,99.99
2022-08-14T03:19:14.234Z,99.99
2022-08-14T03:20:14.245Z,99.99
2022-08-14T03:21:11.591Z,99.99
2022-08-14T03:22:20.105Z,99.99
2022-08-14T03:23:12.056Z,99.99
2022-08-14T03:24:25.393Z,99.99
2022-08-14T03:25:12.729Z,99.99
2022-08-14T03:26:30.019Z,99.99
2022-08-14T03:27:11.993Z,99.99
2022-08-14T03:28:33.496Z,99.99
2022-08-14T03:29:16.255Z,99.99
2022-08-14T03:30:23.187Z,99.99
2022-08-14T03:31:15.597Z,99.99
2022-08-14T03:32:13.108Z,99.99
2022-08-14T03:49:28.723Z,99.99
2022-08-14T03:50:33.282Z,99.99
2022-08-14T03:51:25.130Z,99.99
2022-08-14T03:52:47.858Z,99.99
2022-08-14T03:53:26.077Z,99.99
2022-08-14T03:54:24.067Z,99.99
2022-08-14T03:55:24.688Z,99.99
2022-08-14T03:56:24.174Z,99.99
2022-08-14T03:57:25.302Z,99.99
2022-08-14T03:58:37.078Z,99.99
2022-08-14T03:59:23.759Z,99.99
2022-08-14T04:00:47.152Z,99.99
2022-08-14T04:01:24.097Z,99.99
2022-08-14T04:02:47.473Z,99.99
2022-08-14T04:03:26.486Z,99.99
2022-08-14T04:04:25.154Z,99.99
2022-08-14T04:05:25.366Z,99.99
2022-08-14T04:06:31.650Z,99.99
2022-08-14T04:07:24.685Z,99.99
2022-08-14T04:08:32.880Z,99.99
2022-08-14T04:09:29.078Z,99.99
2022-08-14T04:10:33.814Z,99.99
2022-08-14T04:11:23.914Z,99.99
2022-08-14T04:12:28.854Z,99.99
2022-08-14T04:13:27.677Z,99.99
2022-08-14T04:14:25.734Z,99.99
2022-08-14T04:15:26.010Z,99.99
2022-08-14T04:16:25.014Z,99.99
2022-08-14T04:17:24.777Z,99.99
2022-08-14T04:18:23.940Z,99.99
2022-08-14T04:19:23.733Z,99.99
2022-08-14T04:20:28.126Z,99.99
2022-08-14T04:21:23.571Z,99.99
2022-08-14T04:22:24.647Z,99.99
2022-08-14T04:23:29.283Z,99.99
2022-08-14T04:24:28.210Z,99.99
2022-08-14T04:25:24.615Z,99.99
2022-08-14T04:26:44.368Z,99.99
2022-08-14T04:27:23.782Z,99.99
2022-08-14T04:29:16.695Z,99.99
2022-08-14T04:29:29.067Z,99.99
2022-08-14T04:30:35.403Z,99.99
2022-08-14T04:33:06.491Z,99.99
2022-08-14T04:33:34.347Z,99.99
2022-08-14T04:34:30.231Z,99.99
2022-08-14T04:35:58.511Z,99.99
2022-08-14T04:36:29.488Z,99.99
2022-08-14T04:37:31.196Z,99.99
2022-08-14T04:38:39.822Z,99.99
2022-08-14T04:39:31.157Z,99.99
2022-08-14T04:40:30.071Z,99.99
2022-08-14T04:41:33.095Z,99.99
2022-08-14T04:42:29.436Z,99.99
2022-08-14T04:43:41.045Z,99.99
2022-08-14T04:44:39.689Z,99.99
2022-08-14T04:45:32.042Z,99.99
2022-08-14T04:46:59.619Z,99.99
2022-08-14T04:47:33.319Z,99.99
2022-08-14T04:48:50.942Z,99.99
2022-08-14T04:49:29.646Z,99.99
2022-08-14T04:50:49.167Z,99.99
2022-08-14T04:51:29.969Z,99.99
2022-08-14T04:52:29.366Z,99.99
2022-08-14T04:53:40.926Z,99.99
2022-08-14T04:54:29.862Z,99.99
2022-08-14T04:55:29.913Z,99.99
2022-08-14T04:56:35.991Z,99.99
2022-08-14T04:57:31.361Z,99.99
2022-08-14T04:58:34.727Z,99.99
2022-08-14T04:59:29.568Z,99.99
2022-08-14T05:00:30.341Z,99.99
2022-08-14T05:01:29.464Z,99.99
2022-08-14T05:02:31.095Z,99.99
2022-08-14T05:03:30.247Z,99.99
2022-08-14T05:04:29.529Z,99.99
2022-08-14T05:05:34.338Z,99.99
2022-08-14T05:06:41.027Z,99.99
2022-08-14T05:08:01.403Z,99.99
2022-08-14T05:09:02.726Z,99.99
2022-08-14T05:10:01.343Z,99.99
2022-08-14T05:11:02.911Z,99.99
2022-08-14T05:13:15.426Z,99.99
2022-08-14T05:14:53.222Z,99.99
2022-08-14T05:15:08.553Z,99.99
2022-08-14T05:16:09.271Z,99.99
2022-08-14T05:17:09.309Z,99.99
2022-08-14T05:18:37.279Z,99.99
2022-08-14T05:22:15.476Z,99.99
2022-08-14T05:22:30.940Z,99.99
2022-08-14T05:23:30.679Z,99.99
2022-08-14T05:24:30.670Z,99.99
2022-08-14T05:25:33.793Z,99.99
2022-08-14T05:26:30.911Z,99.99
2022-08-14T05:27:33.762Z,99.99
2022-08-14T05:28:30.645Z,99.99
2022-08-14T05:29:30.850Z,99.99
2022-08-14T05:30:30.631Z,99.99
2022-08-14T05:31:41.985Z,99.99
2022-08-14T05:32:31.275Z,99.99
2022-08-14T05:33:32.519Z,99.99
2022-08-14T05:34:32.264Z,99.99
2022-08-14T05:35:30.896Z,99.99
2022-08-14T05:36:32.763Z,99.99
2022-08-14T05:37:32.317Z,99.99
2022-08-14T05:38:35.088Z,99.99
2022-08-14T05:39:31.213Z,99.99
2022-08-14T05:40:30.563Z,99.99
2022-08-14T05:41:55.977Z,99.99
2022-08-14T05:42:36.133Z,99.99
2022-08-14T05:43:42.946Z,99.99
2022-08-14T05:44:33.108Z,99.99
2022-08-14T05:45:30.530Z,99.99
2022-08-14T05:46:30.736Z,99.99
2022-08-14T05:47:40.068Z,99.99
2022-08-14T05:48:45.536Z,99.99
2022-08-14T05:49:35.736Z,99.99
2022-08-14T05:50:32.035Z,99.99
2022-08-14T05:51:32.934Z,99.99
2022-08-14T05:52:41.843Z,99.99
2022-08-14T05:53:35.994Z,99.99
2022-08-14T05:54:38.134Z,99.99
2022-08-14T05:55:31.291Z,99.99
2022-08-14T05:56:31.545Z,99.99
2022-08-14T05:57:31.629Z,99.99
2022-08-14T05:58:43.350Z,99.99
2022-08-14T05:59:40.079Z,99.99
2022-08-14T06:00:39.579Z,99.99
2022-08-14T06:01:34.453Z,99.99
2022-08-14T06:02:31.309Z,99.99
2022-08-14T06:03:31.397Z,99.99
2022-08-14T06:04:31.279Z,99.99
2022-08-14T06:05:31.917Z,99.99
2022-08-14T06:06:36.797Z,99.99
2022-08-14T06:07:31.002Z,99.99
2022-08-14T06:08:40.976Z,99.99
2022-08-14T06:09:40.487Z,99.99
2022-08-14T06:10:31.460Z,99.99
2022-08-14T06:11:33.681Z,99.99
2022-08-14T06:13:05.865Z,99.99
2022-08-14T06:13:45.489Z,99.99
2022-08-14T06:14:30.961Z,99.99
2022-08-14T06:15:33.170Z,99.99
2022-08-14T06:16:31.269Z,99.99
2022-08-14T06:17:46.063Z,99.99
2022-08-14T06:18:34.366Z,99.99
2022-08-14T06:19:32.172Z,99.99
2022-08-14T06:20:34.251Z,99.99
2022-08-14T06:21:32.097Z,99.99
2022-08-14T06:22:31.175Z,99.99
2022-08-14T06:23:30.912Z,99.99
2022-08-14T06:24:36.840Z,99.99
2022-08-14T06:25:31.792Z,99.99
2022-08-14T06:26:32.711Z,99.99
2022-08-14T06:27:36.494Z,99.99
2022-08-14T06:28:31.150Z,99.99
2022-08-14T06:29:35.621Z,99.99
2022-08-14T06:30:48.378Z,99.99
2022-08-14T06:31:30.871Z,99.99
2022-08-14T06:32:52.684Z,99.99
2022-08-14T06:35:10.512Z,99.99
2022-08-14T06:35:23.987Z,99.99
2022-08-14T06:36:23.741Z,99.99
2022-08-14T06:37:23.805Z,99.99
2022-08-14T06:38:25.480Z,99.99
2022-08-14T06:39:39.943Z,99.99
2022-08-14T06:40:30.109Z,99.99
2022-08-14T06:42:01.638Z,99.99
2022-08-14T06:42:39.509Z,99.99
2022-08-14T06:43:39.147Z,99.99
2022-08-14T06:44:38.998Z,99.99
2022-08-14T06:45:42.043Z,99.99
2022-08-14T06:46:40.275Z,99.99
2022-08-14T06:47:46.275Z,99.99
2022-08-14T06:48:44.240Z,99.99
2022-08-14T06:49:48.474Z,99.99
2022-08-14T06:50:38.866Z,99.99
2022-08-14T06:51:47.227Z,99.99
2022-08-14T06:52:38.858Z,99.99
2022-08-14T06:53:38.854Z,99.99
2022-08-14T06:54:39.403Z,99.99
2022-08-14T06:55:40.683Z,99.99
2022-08-14T06:56:44.331Z,99.99
2022-08-14T06:57:40.774Z,99.99
2022-08-14T06:58:39.089Z,91.39
2022-08-14T06:59:38.827Z,83.84
2022-08-14T07:00:38.829Z,78.99
2022-08-14T07:01:39.338Z,75.48
2022-08-14T07:02:45.923Z,72.25
2022-08-14T07:03:41.855Z,67.66
2022-08-14T07:04:38.819Z,65.85
2022-08-14T07:05:39.835Z,62.41
2022-08-14T07:06:49.398Z,60.6
2022-08-14T07:07:42.675Z,59.66
2022-08-14T07:08:39.936Z,56.57
2022-08-14T07:09:50.886Z,55.21
2022-08-14T07:10:39.069Z,55.13
2022-08-14T07:11:39.069Z,54.75
2022-08-14T07:13:04.606Z,52.83
2022-08-14T07:13:38.815Z,51.97
2022-08-14T07:14:39.570Z,51.78
2022-08-14T07:15:42.507Z,50.92
2022-08-14T07:16:39.118Z,49.98
2022-08-14T07:17:39.073Z,49.02
2022-08-14T07:18:40.761Z,49.53
2022-08-14T07:19:39.777Z,49.26
2022-08-14T07:20:39.083Z,48.38
2022-08-14T07:21:39.083Z,47.16
2022-08-14T07:23:06.889Z,45.01
2022-08-14T07:23:46.546Z,43.95
2022-08-14T07:24:38.841Z,44.56
2022-08-14T07:25:40.154Z,44.66
2022-08-14T07:26:41.037Z,43.68
2022-08-14T07:27:43.139Z,43.09
2022-08-14T07:28:45.265Z,43.88
2022-08-14T07:29:42.458Z,43.88
2022-08-14T07:30:51.319Z,44.37
2022-08-14T07:31:40.438Z,42.91
2022-08-14T07:32:38.912Z,42.82
2022-08-14T07:33:41.797Z,41.66
2022-08-14T07:34:43.799Z,41.58
2022-08-14T07:35:59.524Z,41.68
2022-08-14T07:36:39.143Z,41.02
2022-08-14T07:37:39.537Z,41.53
2022-08-14T07:38:40.394Z,38.29
2022-08-14T07:39:43.349Z,38.29
2022-08-14T07:40:39.658Z,37.6
2022-08-14T07:41:39.179Z,35.83
2022-08-14T07:42:38.923Z,36.01
2022-08-14T07:43:40.833Z,36.39
2022-08-14T07:44:51.166Z,38.35
2022-08-14T07:45:40.529Z,38.15
2022-08-14T07:46:42.423Z,37.37
2022-08-14T07:47:40.539Z,38.06
2022-08-14T07:48:39.636Z,38.64
2022-08-14T07:49:39.217Z,38.53
2022-08-14T07:50:39.509Z,38.9
2022-08-14T07:51:39.652Z,39.92
2022-08-14T07:52:39.506Z,40.78
2022-08-14T07:53:43.031Z,41.52
2022-08-14T07:54:38.987Z,42.09
2022-08-14T07:55:41.571Z,43.53
2022-08-14T07:56:56.293Z,43.9
2022-08-14T07:57:51.849Z,45.22
2022-08-14T07:58:54.176Z,46.56
2022-08-14T07:59:51.583Z,47.42
2022-08-14T08:00:56.531Z,48.56
2022-08-14T08:01:51.511Z,49.54
2022-08-14T08:02:50.551Z,50.29
2022-08-14T08:03:51.985Z,50.16
2022-08-14T08:04:47.505Z,50.56
2022-08-14T08:05:47.513Z,51.89
2022-08-14T08:06:47.264Z,52.15
2022-08-14T08:07:48.404Z,53.61
2022-08-14T08:09:02.748Z,56.01
2022-08-14T08:09:48.240Z,56.74
2022-08-14T08:11:08.323Z,58.39
2022-08-14T08:11:57.320Z,58.67
2022-08-14T08:12:48.149Z,57.42
2022-08-14T08:13:56.758Z,55.89
2022-08-14T08:15:06.075Z,55.89
2022-08-14T08:15:48.839Z,56.09
2022-08-14T08:16:51.082Z,55.6
2022-08-14T08:18:03.994Z,55.6
2022-08-14T08:18:48.775Z,55.99
2022-08-14T08:19:48.102Z,57.93
2022-08-14T08:20:55.915Z,56.76
2022-08-14T08:21:47.848Z,56.64
2022-08-14T08:22:55.741Z,57.51
2022-08-14T08:23:53.895Z,57.9
2022-08-14T08:24:50.219Z,57.61
2022-08-14T08:25:47.990Z,59.64
2022-08-14T08:26:47.995Z,57.7
2022-08-14T08:27:48.112Z,56.05
2022-08-14T08:28:48.172Z,54.9
2022-08-14T08:29:53.340Z,54.77
2022-08-14T08:30:52.592Z,54.96
2022-08-14T08:31:54.123Z,56.03
2022-08-14T08:32:48.961Z,56.03
2022-08-14T08:33:51.860Z,56.71
2022-08-14T08:34:49.169Z,56.81
2022-08-14T08:35:53.221Z,56.59
2022-08-14T08:36:48.896Z,56.59
2022-08-14T08:37:48.637Z,57.43
2022-08-14T08:40:04.353Z,58.98
2022-08-14T08:40:35.154Z,58.65
2022-08-14T08:41:35.185Z,58.27
2022-08-14T08:42:55.497Z,57.69
2022-08-14T08:43:34.811Z,57.71
2022-08-14T08:44:36.761Z,57.62
2022-08-14T08:45:37.637Z,56.65
2022-08-14T08:46:37.803Z,56.97
2022-08-14T08:47:34.562Z,56.87
2022-08-14T08:48:49.533Z,56.03
2022-08-14T08:49:41.990Z,54.5
2022-08-14T08:51:36.817Z,53.83
2022-08-14T08:52:34.644Z,53.66
2022-08-14T08:53:34.675Z,53.27
2022-08-14T08:54:34.822Z,54.14
2022-08-14T08:55:36.351Z,53.59
2022-08-14T08:56:42.371Z,53.78
2022-08-14T08:57:34.576Z,55.04
2022-08-14T08:58:34.829Z,54
2022-08-14T08:59:36.713Z,53.71
2022-08-14T09:00:34.668Z,52.57
2022-08-14T09:01:34.855Z,52.57
2022-08-14T09:02:35.522Z,51.04
2022-08-14T09:03:37.853Z,50.16
2022-08-14T09:04:34.840Z,49.29
2022-08-14T09:05:36.435Z,47.44
2022-08-14T09:07:11.438Z,47.44
2022-08-14T09:07:35.943Z,47.61
2022-08-14T09:08:37.002Z,47.42
2022-08-14T09:09:58.871Z,47.23
2022-08-14T09:10:35.319Z,47.59
2022-08-14T09:11:38.592Z,48.85
2022-08-14T09:12:35.744Z,49.54
2022-08-14T09:13:35.542Z,50.21
2022-08-14T09:14:34.857Z,50.38
2022-08-14T09:15:44.965Z,51.38
2022-08-14T09:16:34.713Z,50.41
2022-08-14T09:17:35.952Z,50.41
2022-08-14T09:18:34.869Z,48.95
2022-08-14T09:19:36.211Z,48.88
2022-08-14T09:20:34.870Z,48.68
2022-08-14T09:21:34.614Z,48.68
2022-08-14T09:22:42.354Z,47.91
2022-08-14T09:24:27.584Z,48.47
2022-08-14T09:24:49.138Z,48.95
2022-08-14T09:26:05.022Z,48.75
2022-08-14T09:26:52.275Z,49.73
2022-08-14T09:27:49.135Z,49.17
2022-08-14T09:28:52.208Z,50.02
2022-08-14T09:29:56.855Z,49.85
2022-08-14T09:30:49.146Z,50.14
2022-08-14T09:31:57.458Z,50.14
2022-08-14T09:33:15.666Z,49.37
2022-08-14T09:34:30.341Z,48.88
2022-08-14T09:35:13.204Z,48.58
2022-08-14T09:36:13.200Z,49.07
2022-08-14T09:37:13.205Z,50.24
2022-08-14T09:38:28.255Z,49.76
2022-08-14T09:39:25.555Z,50.41
2022-08-14T09:40:23.136Z,50.24
2022-08-14T09:41:14.302Z,50.82
2022-08-14T09:42:34.654Z,49.95
2022-08-14T09:43:13.218Z,50.14
2022-08-14T09:44:12.966Z,50.41
2022-08-14T09:45:14.571Z,49.95
2022-08-14T09:46:21.136Z,49.37
2022-08-14T09:47:17.232Z,49.07
2022-08-14T09:48:15.890Z,49.07
2022-08-14T09:49:19.076Z,49.1
2022-08-14T09:50:14.835Z,48.9
2022-08-14T09:51:16.177Z,48.97
2022-08-14T09:52:36.462Z,48.78
2022-08-14T09:53:20.863Z,48.9
2022-08-14T09:54:32.121Z,49
2022-08-14T09:55:43.422Z,49.02
2022-08-14T09:56:33.375Z,48.25
2022-08-14T09:57:32.391Z,48.05
2022-08-14T09:58:32.389Z,49.32
2022-08-14T09:59:38.644Z,49.12
2022-08-14T10:00:33.263Z,48.93
2022-08-14T10:01:33.911Z,49.19
2022-08-14T10:02:32.327Z,48.9
2022-08-14T10:03:35.433Z,48.8
2022-08-14T10:04:41.215Z,48.22
2022-08-14T10:05:32.796Z,47.83
2022-08-14T10:06:32.227Z,47.66
2022-08-14T10:07:32.409Z,45.62
2022-08-14T10:08:32.412Z,45.31
2022-08-14T10:09:37.090Z,44.92
2022-08-14T10:10:36.567Z,45.18
2022-08-14T10:11:37.424Z,44.79
2022-08-14T10:12:35.430Z,45.45
2022-08-14T10:13:53.045Z,45.45
2022-08-14T10:14:37.613Z,46.41
2022-08-14T10:15:32.695Z,46.98
2022-08-14T10:16:37.115Z,46.6
2022-08-14T10:17:40.867Z,45.89
2022-08-14T10:18:32.496Z,45.99
2022-08-14T10:19:37.747Z,46.84
2022-08-14T10:20:45.038Z,47.23
2022-08-14T10:21:58.333Z,48.2
2022-08-14T10:23:38.959Z,47.3
2022-08-14T10:24:39.906Z,47.3
2022-08-14T10:25:40.679Z,47.5
2022-08-14T10:26:39.516Z,47.89
2022-08-14T10:27:39.168Z,47.89
2022-08-14T10:29:23.775Z,48.27
2022-08-14T10:29:39.221Z,48.18
2022-08-14T10:30:39.225Z,47.52
2022-08-14T10:31:47.593Z,47.42
2022-08-14T10:32:53.832Z,47.81
2022-08-14T10:33:40.165Z,47.91
2022-08-14T10:34:43.333Z,48.59
2022-08-14T10:35:42.299Z,48.78
2022-08-14T10:36:44.940Z,47.52
2022-08-14T10:37:42.074Z,47.33
2022-08-14T10:38:41.282Z,47.42
2022-08-14T10:39:46.419Z,46.75
2022-08-14T10:41:02.149Z,46.36
2022-08-14T10:41:56.621Z,46.84
2022-08-14T10:42:56.306Z,47.03
2022-08-14T10:43:55.590Z,46.84
2022-08-14T10:44:56.229Z,46.77
2022-08-14T10:46:22.247Z,46.48
2022-08-14T10:48:49.329Z,46.36
2022-08-14T10:49:53.263Z,46.48
2022-08-14T10:50:49.395Z,47.06
2022-08-14T10:51:50.699Z,46.69
2022-08-14T10:52:50.506Z,44.85
2022-08-14T10:53:52.051Z,45.04
2022-08-14T10:54:49.971Z,44.92
2022-08-14T10:55:52.495Z,45.31
2022-08-14T10:56:49.280Z,46.01
2022-08-14T10:57:49.535Z,46.21
2022-08-14T10:58:49.542Z,45.92
2022-08-14T10:59:49.351Z,46.11
2022-08-14T11:00:51.517Z,46.48
2022-08-14T11:01:50.946Z,47.16
2022-08-14T11:02:57.974Z,46.79
2022-08-14T11:03:59.283Z,47.38
2022-08-14T11:04:49.364Z,46.81
2022-08-14T11:05:55.997Z,44.97
2022-08-14T11:06:49.557Z,44.41
2022-08-14T11:07:55.261Z,44.41
2022-08-14T11:08:53.093Z,44.41
2022-08-14T11:09:50.286Z,44.62
2022-08-14T11:10:49.563Z,43.55
2022-08-14T11:12:35.205Z,42.68
2022-08-14T11:12:51.876Z,42.39
2022-08-14T11:13:51.463Z,42.39
2022-08-14T11:14:59.082Z,43.34
2022-08-14T11:15:51.501Z,43.15
2022-08-14T11:16:55.850Z,43.12
2022-08-14T11:17:52.011Z,43.71
2022-08-14T11:18:55.846Z,44.68
2022-08-14T11:19:56.373Z,45.43
2022-08-14T11:20:51.514Z,46.04
2022-08-14T11:21:57.812Z,44.48
2022-08-14T11:22:58.755Z,44.97
2022-08-14T11:23:57.194Z,45.07
2022-08-14T11:24:59.419Z,44.89
2022-08-14T11:25:59.162Z,44.53
2022-08-14T11:26:59.422Z,43.77
2022-08-14T11:27:59.171Z,44.38
2022-08-14T11:29:02.298Z,43.6
2022-08-14T11:30:49.487Z,42.55
2022-08-14T11:31:07.969Z,42.55
2022-08-14T11:32:07.382Z,42.86
2022-08-14T11:33:07.569Z,42.38
2022-08-14T11:34:29.760Z,42.35
2022-08-14T11:35:09.045Z,41.85
2022-08-14T11:36:20.007Z,42.53
2022-08-14T11:37:41.939Z,42.53
2022-08-14T11:38:29.321Z,42.21
2022-08-14T11:39:37.339Z,42.21
2022-08-14T11:40:31.383Z,41.63
2022-08-14T11:41:27.155Z,41.36
2022-08-14T11:43:00.341Z,40.19
2022-08-14T11:43:32.893Z,39.72
2022-08-14T11:44:48.521Z,39.34
2022-08-14T11:45:26.247Z,38.73
2022-08-14T11:46:39.925Z,39.03
2022-08-14T11:47:26.441Z,39.8
2022-08-14T11:49:10.886Z,40.58
2022-08-14T11:50:25.225Z,41.34
2022-08-14T11:51:10.463Z,41.32
2022-08-14T11:52:09.606Z,41.42
2022-08-14T11:53:09.901Z,41.22
2022-08-14T11:54:10.656Z,41.61
2022-08-14T11:55:09.997Z,41.13
2022-08-14T11:56:13.116Z,40.72
2022-08-14T11:57:10.957Z,41.01
2022-08-14T11:58:11.025Z,41.2
2022-08-14T11:59:13.271Z,41.38
2022-08-14T12:00:11.009Z,41.96
2022-08-14T12:01:11.840Z,41.94
2022-08-14T12:02:09.953Z,43.3
2022-08-14T12:03:27.422Z,43.59
2022-08-14T12:04:35.229Z,42.81
2022-08-14T12:05:18.901Z,42.91
2022-08-14T12:06:38.568Z,43.41
2022-08-14T12:07:17.788Z,44.19
2022-08-14T12:08:30.106Z,44.58
2022-08-14T12:09:17.752Z,45.07
2022-08-14T12:10:40.870Z,45.55
2022-08-14T12:11:17.186Z,45.45
2022-08-14T12:12:37.392Z,45.55
2022-08-14T12:13:20.126Z,44.58
2022-08-14T12:14:38.863Z,44.19
2022-08-14T12:15:17.149Z,44.38
2022-08-14T12:16:23.251Z,44.38
2022-08-14T12:17:26.286Z,44
2022-08-14T12:18:22.185Z,43.92
2022-08-14T12:19:17.760Z,43.26
2022-08-14T12:20:29.716Z,41.32
2022-08-14T12:21:21.234Z,40.44
2022-08-14T12:22:32.661Z,40.62
2022-08-14T12:23:17.171Z,40.81
2022-08-14T12:24:42.278Z,40.81
2022-08-14T12:25:17.177Z,40.72
2022-08-14T12:26:43.107Z,40.52
2022-08-14T12:27:19.158Z,40.72
2022-08-14T12:28:59.590Z,40.62
2022-08-14T12:29:18.074Z,40.62
2022-08-14T12:30:23.530Z,40.64
2022-08-14T12:31:22.832Z,40.62
2022-08-14T12:32:17.359Z,40.72
2022-08-14T12:33:20.428Z,40.91
2022-08-14T12:34:22.806Z,40.99
2022-08-14T12:35:18.334Z,40.62
2022-08-14T12:36:23.207Z,40.72
2022-08-14T12:37:17.375Z,41.1
2022-08-14T12:38:23.395Z,41.39
2022-08-14T12:39:18.103Z,41.42
2022-08-14T12:40:22.740Z,41.32
2022-08-14T12:41:24.016Z,41.24
2022-08-14T12:42:38.777Z,40.37
2022-08-14T12:43:17.481Z,39.78
2022-08-14T12:44:17.137Z,40.17
2022-08-14T12:45:19.830Z,40.09
2022-08-14T12:46:29.756Z,39.41
2022-08-14T12:47:17.456Z,39.03
2022-08-14T12:48:34.073Z,38.64
2022-08-14T12:49:18.460Z,37.66
2022-08-14T12:50:18.410Z,37.76
2022-08-14T12:51:17.154Z,38.44
2022-08-14T12:52:19.771Z,38.64
2022-08-14T12:53:22.051Z,38.34
2022-08-14T12:54:32.197Z,38.83
2022-08-14T12:55:23.118Z,38.62
2022-08-14T12:56:43.290Z,38.52
2022-08-14T12:57:40.965Z,39.29
2022-08-14T12:58:54.805Z,39.49
2022-08-14T12:59:45.150Z,39.47
2022-08-14T13:01:16.605Z,40.73
2022-08-14T13:02:06.563Z,40.44
2022-08-14T13:02:45.009Z,40.42
2022-08-14T13:03:42.858Z,40.62
2022-08-14T13:04:45.600Z,41.49
2022-08-14T13:05:41.868Z,41.39
2022-08-14T13:06:40.686Z,41.49
2022-08-14T13:07:41.731Z,41.1
2022-08-14T13:08:53.155Z,42.08
2022-08-14T13:09:43.562Z,41.71
2022-08-14T13:10:53.447Z,41.2
2022-08-14T13:11:44.791Z,41.59
2022-08-14T13:13:18.049Z,42.27
2022-08-14T13:14:22.470Z,41.98
2022-08-14T13:15:16.558Z,41.28
2022-08-14T13:16:37.845Z,40.81
2022-08-14T13:17:15.761Z,40.89
2022-08-14T13:18:15.634Z,41.28
2022-08-14T13:19:17.161Z,41.1
2022-08-14T13:20:27.193Z,41.01
2022-08-14T13:21:14.916Z,41.01
2022-08-14T13:22:38.312Z,41.01
2022-08-14T13:23:19.264Z,41.01
2022-08-14T13:24:17.336Z,40.73
2022-08-14T13:25:18.269Z,40.44
2022-08-14T13:26:14.906Z,40.25
2022-08-14T13:27:14.775Z,40.34
2022-08-14T13:28:33.484Z,39.69
2022-08-14T13:29:15.447Z,39.49
2022-08-14T13:30:25.986Z,39.2